createdAt,value
2018-08-25T00:00:17.528Z,6.73
2018-08-25T00:02:45.894Z,5.03
2018-08-25T00:05:14.245Z,8.30
2018-08-25T00:07:42.640Z,6.47
2018-08-25T00:10:11.040Z,6.03
2018-08-25T00:12:39.483Z,6.40
2018-08-25T00:15:08.140Z,10.73
2018-08-25T00:17:36.514Z,5.50
2018-08-25T00:20:04.898Z,3.83
2018-08-25T00:22:33.466Z,4.93
2018-08-25T00:25:02.060Z,5.80
2018-08-25T00:27:30.394Z,5.80
2018-08-25T00:29:58.744Z,8.73
2018-08-25T00:32:27.148Z,6.63
2018-08-25T00:34:55.515Z,6.30
2018-08-25T00:37:23.861Z,8.97
2018-08-25T00:39:52.202Z,4.50
2018-08-25T00:42:20.548Z,5.33
2018-08-25T00:44:48.892Z,5.27
2018-08-25T00:47:17.240Z,5.63
2018-08-25T00:49:45.568Z,3.57
2018-08-25T00:52:13.946Z,6.67
2018-08-25T00:54:42.330Z,8.20
2018-08-25T00:57:10.660Z,3.90
2018-08-25T00:59:39.015Z,5.60
2018-08-25T01:02:07.380Z,6.13
2018-08-25T01:04:35.719Z,6.47
2018-08-25T01:07:04.071Z,7.37
2018-08-25T01:09:32.429Z,7.47
2018-08-25T01:12:00.808Z,5.70
2018-08-25T01:14:29.204Z,3.67
2018-08-25T01:16:57.584Z,4.53
2018-08-25T01:19:25.935Z,8.63
2018-08-25T01:21:54.287Z,6.50
2018-08-25T01:24:22.924Z,4.83
2018-08-25T01:26:51.337Z,5.40
2018-08-25T01:29:19.684Z,5.80
2018-08-25T01:31:48.031Z,10.17
2018-08-25T01:34:16.387Z,5.33
2018-08-25T01:36:44.752Z,5.97
2018-08-25T01:39:13.112Z,14.83
2018-08-25T01:41:41.444Z,10.20
2018-08-25T01:44:09.818Z,4.70
2018-08-25T01:46:38.204Z,7.80
2018-08-25T01:49:06.566Z,8.77
2018-08-25T01:51:34.903Z,4.03
2018-08-25T01:54:03.272Z,5.43
2018-08-25T01:56:31.615Z,5.17
2018-08-25T01:59:00.040Z,7.30
2018-08-25T02:01:28.369Z,5.23
2018-08-25T02:03:56.756Z,6.53
2018-08-25T02:06:25.135Z,7.87
2018-08-25T02:08:53.488Z,5.10
2018-08-25T02:11:21.852Z,4.27
2018-08-25T02:13:50.202Z,6.53
2018-08-25T02:16:18.530Z,5.60
2018-08-25T02:18:46.886Z,6.67
2018-08-25T02:21:15.267Z,8.10
2018-08-25T02:23:43.671Z,9.13
2018-08-25T02:26:11.999Z,8.03
2018-08-25T02:28:40.339Z,7.57
2018-08-25T02:31:08.717Z,6.73
2018-08-25T02:33:37.100Z,8.07
2018-08-25T02:36:05.463Z,5.13
2018-08-25T02:38:33.802Z,6.30
2018-08-25T02:41:02.168Z,5.13
2018-08-25T02:43:30.513Z,5.07
2018-08-25T02:45:58.836Z,7.10
2018-08-25T02:48:27.216Z,9.20
2018-08-25T02:50:55.580Z,8.90
2018-08-25T02:53:23.922Z,9.23
2018-08-25T02:55:52.265Z,5.00
2018-08-25T02:58:20.615Z,7.33
2018-08-25T03:00:48.959Z,7.50
2018-08-25T03:03:17.271Z,6.43
2018-08-25T03:05:45.618Z,5.20
2018-08-25T03:08:14.083Z,8.10
2018-08-25T03:10:42.446Z,5.83
2018-08-25T03:13:10.788Z,8.60
2018-08-25T03:15:39.130Z,10.13
2018-08-25T03:18:07.457Z,7.60
2018-08-25T03:20:35.823Z,6.17
2018-08-25T03:23:04.174Z,5.80
2018-08-25T03:25:32.521Z,6.33
2018-08-25T03:28:01.099Z,8.40
2018-08-25T03:30:29.446Z,6.77
2018-08-25T03:32:57.788Z,5.50
2018-08-25T03:35:26.159Z,7.77
2018-08-25T03:37:54.492Z,7.63
2018-08-25T03:40:22.856Z,8.27
2018-08-25T03:42:51.232Z,6.03
2018-08-25T03:45:19.582Z,9.80
2018-08-25T03:47:47.943Z,7.83
2018-08-25T03:50:16.307Z,7.73
2018-08-25T03:52:44.657Z,5.13
2018-08-25T03:55:13.022Z,6.87
2018-08-25T03:57:41.377Z,5.87
2018-08-25T04:00:10.130Z,6.30
2018-08-25T04:02:38.474Z,5.47
2018-08-25T04:05:06.982Z,5.33
2018-08-25T04:07:35.337Z,6.13
2018-08-25T04:10:03.720Z,7.57
2018-08-25T04:12:32.058Z,7.17
2018-08-25T04:15:00.958Z,4.70
2018-08-25T04:17:29.200Z,5.27
2018-08-25T04:19:57.560Z,5.63
2018-08-25T04:22:25.924Z,10.63
2018-08-25T04:24:54.298Z,5.73
2018-08-25T04:27:22.643Z,5.07
2018-08-25T04:29:51.018Z,5.70
2018-08-25T04:32:19.391Z,6.10
2018-08-25T04:34:47.748Z,4.57
2018-08-25T04:37:16.091Z,6.00
2018-08-25T04:39:44.472Z,6.27
2018-08-25T04:42:12.790Z,5.07
2018-08-25T04:44:41.159Z,8.00
2018-08-25T04:47:09.558Z,7.90
2018-08-25T04:49:37.888Z,6.00
2018-08-25T04:52:06.362Z,8.23
2018-08-25T04:54:34.700Z,6.73
2018-08-25T04:57:03.021Z,7.70
2018-08-25T04:59:31.378Z,11.93
2018-08-25T05:01:59.805Z,11.27
2018-08-25T05:04:28.119Z,25.53
2018-08-25T05:06:56.469Z,23.23
2018-08-25T05:09:24.829Z,26.20
2018-08-25T05:11:53.155Z,23.47
2018-08-25T05:14:21.504Z,22.80
2018-08-25T05:16:49.849Z,26.17
2018-08-25T05:19:18.192Z,28.00
2018-08-25T05:21:46.549Z,51.50
2018-08-25T05:24:14.888Z,31.23
2018-08-25T05:26:43.220Z,29.67
2018-08-25T05:29:11.607Z,30.80
2018-08-25T05:31:39.959Z,35.57
2018-08-25T05:34:08.297Z,41.50
2018-08-25T05:36:36.645Z,44.80
2018-08-25T05:39:07.552Z,39.57
2018-08-25T05:41:35.965Z,41.00
2018-08-25T05:44:04.964Z,74.43
2018-08-25T05:46:33.333Z,46.67
2018-08-25T05:49:02.091Z,44.10
2018-08-25T05:51:30.435Z,43.67
2018-08-25T05:53:58.812Z,43.87
2018-08-25T05:56:27.571Z,43.67
2018-08-25T05:58:55.939Z,40.87
2018-08-25T06:01:24.259Z,39.90
2018-08-25T06:03:52.614Z,41.57
2018-08-25T06:06:20.952Z,44.53
2018-08-25T06:08:49.293Z,37.90
2018-08-25T06:11:17.636Z,39.90
2018-08-25T06:13:45.984Z,39.37
2018-08-25T06:16:14.355Z,37.30
2018-08-25T06:18:42.691Z,34.13
2018-08-25T06:21:11.087Z,36.30
2018-08-25T06:23:39.434Z,37.67
2018-08-25T06:26:07.796Z,36.87
2018-08-25T06:28:36.147Z,33.73
2018-08-25T06:31:05.202Z,37.93
2018-08-25T06:33:33.528Z,34.80
2018-08-25T06:36:02.005Z,31.20
2018-08-25T06:38:30.329Z,32.80
2018-08-25T06:40:58.668Z,38.17
2018-08-25T06:43:27.043Z,36.00
2018-08-25T06:46:00.680Z,33.93
2018-08-25T06:48:29.047Z,32.07
2018-08-25T06:50:57.472Z,28.30
2018-08-25T06:53:25.878Z,28.70
2018-08-25T06:55:54.199Z,34.47
2018-08-25T06:58:22.580Z,28.50
2018-08-25T07:00:51.537Z,24.77
2018-08-25T07:03:20.042Z,33.20
2018-08-25T07:05:48.409Z,31.47
2018-08-25T07:08:16.772Z,27.77
2018-08-25T07:10:45.224Z,34.00
2018-08-25T07:13:13.650Z,27.77
2018-08-25T07:15:42.047Z,33.03
2018-08-25T07:18:10.798Z,28.00
2018-08-25T07:20:39.171Z,28.90
2018-08-25T07:23:07.553Z,34.50
2018-08-25T07:25:36.147Z,23.83
2018-08-25T07:28:04.539Z,28.93
2018-08-25T07:30:33.024Z,27.60
2018-08-25T07:33:01.583Z,27.33
2018-08-25T07:35:30.038Z,29.93
2018-08-25T07:37:58.460Z,31.37
2018-08-25T07:40:26.823Z,29.33
2018-08-25T07:42:55.189Z,30.40
2018-08-25T07:45:23.963Z,34.40
2018-08-25T07:47:52.549Z,37.63
2018-08-25T07:50:21.003Z,36.13
2018-08-25T07:52:49.404Z,40.00
2018-08-25T07:55:17.747Z,37.10
2018-08-25T07:57:46.180Z,42.73
2018-08-25T08:00:14.536Z,40.00
2018-08-25T08:02:42.925Z,40.57
2018-08-25T08:05:11.275Z,41.03
2018-08-25T08:07:39.664Z,46.00
2018-08-25T08:10:08.058Z,51.20
2018-08-25T08:12:36.437Z,45.90
2018-08-25T08:15:04.820Z,48.67
2018-08-25T08:17:33.195Z,52.50
2018-08-25T08:20:01.552Z,47.03
2018-08-25T08:22:29.955Z,51.33
2018-08-25T08:24:58.360Z,56.30
2018-08-25T08:27:26.770Z,45.27
2018-08-25T08:29:58.843Z,47.90
2018-08-25T08:32:27.402Z,46.97
2018-08-25T08:34:55.814Z,41.47
2018-08-25T08:37:24.245Z,34.63
2018-08-25T08:39:52.649Z,25.47
2018-08-25T08:42:21.180Z,28.73
2018-08-25T08:44:49.523Z,29.95
2018-08-25T08:47:18.083Z,21.52
2018-08-25T08:49:46.908Z,20.80
2018-08-25T08:52:14.805Z,22.50
2018-08-25T08:54:43.174Z,18.50
2018-08-25T08:57:11.563Z,19.52
2018-08-25T08:59:39.949Z,20.43
2018-08-25T09:02:08.343Z,12.50
2018-08-25T09:04:36.692Z,13.25
2018-08-25T09:07:05.222Z,14.93
2018-08-25T09:09:33.654Z,16.55
2018-08-25T09:12:02.345Z,14.58
2018-08-25T09:14:31.594Z,12.58
2018-08-25T09:16:59.992Z,12.55
2018-08-25T09:19:28.662Z,13.20
2018-08-25T09:21:57.695Z,12.58
2018-08-25T09:24:26.112Z,12.63
2018-08-25T09:26:54.489Z,14.40
2018-08-25T09:29:22.855Z,9.20
2018-08-25T09:31:51.274Z,8.98
2018-08-25T09:34:20.172Z,11.38
2018-08-25T09:36:48.724Z,9.70
2018-08-25T09:39:16.968Z,9.35
2018-08-25T09:41:45.390Z,12.65
2018-08-25T09:44:13.737Z,11.25
2018-08-25T09:46:42.108Z,13.65
2018-08-25T09:49:10.451Z,12.95
2018-08-25T09:51:38.832Z,14.65
2018-08-25T09:54:07.244Z,12.70
2018-08-25T09:56:35.590Z,12.33
2018-08-25T09:59:04.038Z,15.78
2018-08-25T10:01:33.259Z,10.75
2018-08-25T10:04:02.055Z,12.58
2018-08-25T10:06:30.416Z,10.95
2018-08-25T10:08:59.352Z,9.50
2018-08-25T10:11:27.707Z,9.93
2018-08-25T10:13:56.192Z,9.95
2018-08-25T10:16:24.624Z,11.83
2018-08-25T10:18:52.979Z,10.43
2018-08-25T10:21:21.361Z,11.10
2018-08-25T10:23:49.706Z,10.93
2018-08-25T10:26:18.087Z,7.87
2018-08-25T10:28:46.464Z,8.53
2018-08-25T10:31:14.840Z,11.48
2018-08-25T10:33:43.200Z,8.63
2018-08-25T10:36:11.568Z,6.45
2018-08-25T10:38:39.912Z,12.43
2018-08-25T10:41:08.322Z,8.17
2018-08-25T10:43:37.127Z,8.13
2018-08-25T10:46:05.515Z,7.93
2018-08-25T10:48:33.894Z,7.20
2018-08-25T10:51:02.284Z,9.37
2018-08-25T10:53:30.741Z,12.90
2018-08-25T10:55:59.114Z,8.17
2018-08-25T10:58:27.460Z,6.10
2018-08-25T11:00:55.889Z,8.87
2018-08-25T11:03:24.247Z,8.80
2018-08-25T11:05:52.627Z,8.77
2018-08-25T11:08:21.010Z,8.23
2018-08-25T11:10:49.408Z,8.00
2018-08-25T11:13:17.803Z,5.77
2018-08-25T11:15:46.172Z,5.90
2018-08-25T11:18:14.602Z,5.00
2018-08-25T11:20:43.106Z,5.17
2018-08-25T11:23:11.998Z,4.23
2018-08-25T11:25:41.453Z,5.20
2018-08-25T11:28:09.876Z,7.43
2018-08-25T11:30:38.367Z,9.90
2018-08-25T11:33:07.469Z,10.13
2018-08-25T11:35:35.847Z,4.87
2018-08-25T11:38:04.225Z,6.50
2018-08-25T11:40:32.626Z,7.23
2018-08-25T11:43:01.005Z,7.40
2018-08-25T11:45:29.428Z,5.87
2018-08-25T11:47:57.793Z,4.73
2018-08-25T11:50:26.184Z,5.63
2018-08-25T11:52:54.548Z,3.83
2018-08-25T11:55:22.967Z,3.57
2018-08-25T11:57:51.622Z,4.07
2018-08-25T12:00:20.057Z,2.77
2018-08-25T12:02:49.183Z,5.23
2018-08-25T12:05:17.580Z,3.43
2018-08-25T12:07:45.916Z,7.33
2018-08-25T12:10:14.339Z,6.77
2018-08-25T12:12:42.680Z,5.17
2018-08-25T12:15:11.337Z,3.37
2018-08-25T12:17:39.814Z,7.17
2018-08-25T12:20:08.212Z,4.60
2018-08-25T12:22:36.645Z,7.77
2018-08-25T12:25:05.263Z,7.20
2018-08-25T12:27:34.456Z,4.23
2018-08-25T12:30:02.896Z,4.67
2018-08-25T12:32:31.287Z,3.27
2018-08-25T12:35:00.174Z,3.13
2018-08-25T12:37:28.622Z,6.20
2018-08-25T12:39:57.003Z,5.93
2018-08-25T12:42:25.417Z,7.00
2018-08-25T12:44:53.894Z,7.67
2018-08-25T12:47:26.440Z,8.23
2018-08-25T12:49:56.251Z,7.10
2018-08-25T12:52:24.666Z,14.30
2018-08-25T12:54:53.048Z,10.23
2018-08-25T12:57:21.900Z,5.90
2018-08-25T12:59:50.352Z,3.80
2018-08-25T13:02:18.748Z,3.87
2018-08-25T13:04:47.675Z,8.50
2018-08-25T13:07:16.248Z,5.87
2018-08-25T13:09:45.711Z,5.07
2018-08-25T13:12:14.424Z,8.30
2018-08-25T13:14:43.357Z,6.70
2018-08-25T13:17:11.735Z,6.43
2018-08-25T13:19:40.075Z,5.63
2018-08-25T13:22:08.975Z,6.37
2018-08-25T13:24:37.387Z,7.13
2018-08-25T13:27:06.350Z,7.17
2018-08-25T13:29:34.758Z,11.83
2018-08-25T13:32:03.787Z,8.70
2018-08-25T13:34:32.700Z,8.60
2018-08-25T13:37:01.084Z,7.83
2018-08-25T13:39:29.500Z,4.83
2018-08-25T13:41:58.032Z,6.03
2018-08-25T13:44:26.467Z,6.00
2018-08-25T13:46:54.802Z,5.57
2018-08-25T13:49:23.182Z,6.40
2018-08-25T13:51:51.559Z,8.87
2018-08-25T13:54:20.015Z,6.37
2018-08-25T13:56:48.916Z,6.43
2018-08-25T13:59:17.353Z,5.90
2018-08-25T14:01:46.286Z,8.97
2018-08-25T14:04:14.862Z,5.53
2018-08-25T14:06:43.272Z,6.13
2018-08-25T14:09:11.761Z,5.77
2018-08-25T14:11:40.380Z,4.03
2018-08-25T14:14:08.753Z,4.73
2018-08-25T14:16:37.142Z,6.67
2018-08-25T14:19:05.526Z,6.60
2018-08-25T14:21:34.140Z,5.70
2018-08-25T14:24:02.583Z,6.50
2018-08-25T14:26:31.200Z,5.63
2018-08-25T14:28:59.722Z,6.70
2018-08-25T14:31:28.182Z,3.97
2018-08-25T14:33:56.567Z,6.40
2018-08-25T14:36:24.982Z,5.67
2018-08-25T14:38:54.019Z,6.73
2018-08-25T14:41:22.802Z,4.60
2018-08-25T14:43:51.280Z,5.77
2018-08-25T14:46:19.634Z,3.37
2018-08-25T14:48:48.520Z,4.33
2018-08-25T14:51:16.904Z,4.77
2018-08-25T14:53:46.081Z,3.90
2018-08-25T14:56:14.519Z,6.93
2018-08-25T14:58:43.407Z,4.47
2018-08-25T15:01:11.896Z,3.40
2018-08-25T15:03:40.369Z,4.10
2018-08-25T15:06:09.288Z,4.23
2018-08-25T15:08:37.741Z,2.27
2018-08-25T15:11:07.148Z,5.97
2018-08-25T15:13:35.692Z,3.40
2018-08-25T15:16:04.061Z,2.83
2018-08-25T15:18:32.506Z,3.80
2018-08-25T15:21:01.480Z,7.87
2018-08-25T15:23:30.084Z,2.10
2018-08-25T15:25:58.546Z,3.17
2018-08-25T15:28:26.957Z,5.10
2018-08-25T15:30:55.509Z,2.00
2018-08-25T15:33:23.989Z,2.00
2018-08-25T15:35:52.432Z,2.87
2018-08-25T15:38:20.846Z,2.07
2018-08-25T15:40:49.844Z,2.23
2018-08-25T15:43:18.835Z,1.73
2018-08-25T15:45:47.282Z,5.63
2018-08-25T15:48:15.798Z,2.80
2018-08-25T15:50:44.248Z,2.60
2018-08-25T15:53:12.727Z,5.00
2018-08-25T15:55:41.650Z,2.90
2018-08-25T15:58:10.034Z,2.63
2018-08-25T16:00:38.430Z,2.63
2018-08-25T16:03:06.847Z,4.40
2018-08-25T16:05:37.763Z,2.60
2018-08-25T16:08:07.439Z,2.23
2018-08-25T16:10:35.844Z,1.93
2018-08-25T16:13:05.429Z,2.93
2018-08-25T16:15:33.814Z,2.70
2018-08-25T16:18:02.212Z,2.00
2018-08-25T16:20:30.630Z,4.50
2018-08-25T16:22:59.050Z,4.07
2018-08-25T16:25:27.520Z,4.80
2018-08-25T16:27:55.929Z,4.33
2018-08-25T16:30:24.864Z,5.83
2018-08-25T16:32:53.782Z,2.87
2018-08-25T16:35:22.176Z,3.83
2018-08-25T16:37:50.591Z,7.50
2018-08-25T16:40:19.049Z,4.27
2018-08-25T16:42:47.629Z,6.27
2018-08-25T16:45:16.345Z,2.50
2018-08-25T16:47:44.775Z,1.40
2018-08-25T16:50:13.773Z,3.97
2018-08-25T16:52:42.171Z,3.90
2018-08-25T16:55:10.625Z,4.33
2018-08-25T16:57:39.008Z,3.87
2018-08-25T17:00:07.765Z,5.00
2018-08-25T17:02:37.373Z,3.63
2018-08-25T17:05:05.849Z,10.00
2018-08-25T17:07:34.802Z,4.23
2018-08-25T17:10:03.284Z,5.77
2018-08-25T17:12:31.746Z,5.77
2018-08-25T17:15:00.434Z,3.53
2018-08-25T17:17:28.912Z,6.83
2018-08-25T17:19:57.321Z,7.00
2018-08-25T17:22:25.769Z,5.23
2018-08-25T17:24:54.110Z,4.97
2018-08-25T17:27:22.525Z,8.77
2018-08-25T17:29:51.806Z,6.83
2018-08-25T17:32:20.313Z,5.87
2018-08-25T17:34:48.724Z,13.03
2018-08-25T17:37:17.131Z,7.77
2018-08-25T17:39:45.681Z,3.07
2018-08-25T17:42:14.092Z,4.80
2018-08-25T17:44:43.029Z,3.70
2018-08-25T17:47:11.532Z,2.73
2018-08-25T17:49:39.991Z,3.93
2018-08-25T17:52:08.412Z,2.97
2018-08-25T17:54:36.856Z,4.53
2018-08-25T17:57:05.300Z,2.80
2018-08-25T17:59:33.712Z,4.83
2018-08-25T18:02:02.191Z,2.33
2018-08-25T18:04:30.631Z,10.17
2018-08-25T18:06:59.032Z,4.77
2018-08-25T18:09:27.601Z,2.33
2018-08-25T18:11:55.970Z,1.80
2018-08-25T18:14:24.393Z,2.60
2018-08-25T18:16:52.772Z,1.50
2018-08-25T18:19:21.243Z,3.37
2018-08-25T18:21:49.613Z,4.27
2018-08-25T18:24:18.961Z,1.53
2018-08-25T18:26:47.414Z,3.00
2018-08-25T18:29:15.815Z,2.90
2018-08-25T18:31:44.265Z,2.87
2018-08-25T18:34:12.653Z,3.00
2018-08-25T18:36:41.054Z,7.03
2018-08-25T18:39:11.796Z,4.60
2018-08-25T18:41:40.221Z,3.70
2018-08-25T18:44:08.590Z,3.97
2018-08-25T18:46:36.967Z,1.40
2018-08-25T18:49:05.381Z,1.90
2018-08-25T18:51:33.722Z,2.40
2018-08-25T18:54:02.123Z,1.93
2018-08-25T18:56:30.487Z,4.53
2018-08-25T18:58:59.028Z,1.73
2018-08-25T19:01:27.504Z,1.30
2018-08-25T19:03:55.867Z,2.10
2018-08-25T19:06:24.234Z,1.30
2018-08-25T19:08:52.585Z,1.40
2018-08-25T19:11:21.260Z,3.00
2018-08-25T19:13:49.954Z,1.37
2018-08-25T19:16:18.384Z,2.87
2018-08-25T19:18:46.816Z,3.37
2018-08-25T19:21:15.605Z,1.60
2018-08-25T19:23:44.029Z,4.53
2018-08-25T19:26:12.388Z,20.43
2018-08-25T19:28:40.804Z,5.73
2018-08-25T19:31:09.322Z,5.63
2018-08-25T19:33:37.783Z,6.27
2018-08-25T19:36:06.143Z,2.57
2018-08-25T19:38:34.612Z,2.73
2018-08-25T19:41:03.049Z,2.47
2018-08-25T19:43:31.547Z,5.17
2018-08-25T19:45:59.937Z,1.80
2018-08-25T19:48:28.316Z,2.87
2018-08-25T19:50:56.684Z,5.63
2018-08-25T19:53:25.165Z,6.50
2018-08-25T19:55:53.555Z,6.77
2018-08-25T19:58:21.933Z,4.00
2018-08-25T20:00:50.306Z,2.27
2018-08-25T20:03:18.739Z,1.80
2018-08-25T20:05:47.197Z,1.50
2018-08-25T20:08:15.560Z,2.40
2018-08-25T20:10:43.921Z,3.43
2018-08-25T20:13:12.270Z,4.20
2018-08-25T20:15:40.867Z,10.57
2018-08-25T20:18:09.366Z,4.20
2018-08-25T20:20:37.870Z,3.57
2018-08-25T20:23:06.477Z,4.90
2018-08-25T20:25:34.945Z,3.93
2018-08-25T20:28:03.551Z,1.30
2018-08-25T20:30:31.993Z,1.60
2018-08-25T20:33:00.411Z,1.50
2018-08-25T20:35:28.848Z,2.00
2018-08-25T20:37:59.108Z,2.53
2018-08-25T20:40:27.553Z,3.57
2018-08-25T20:42:56.054Z,5.63
2018-08-25T20:45:24.472Z,10.07
2018-08-25T20:47:52.895Z,4.27
2018-08-25T20:50:21.273Z,3.80
2018-08-25T20:52:49.756Z,2.97
2018-08-25T20:55:18.124Z,2.27
2018-08-25T20:57:46.501Z,3.13
2018-08-25T21:00:14.866Z,3.57
2018-08-25T21:02:43.260Z,4.60
2018-08-25T21:05:11.650Z,1.60
2018-08-25T21:07:39.992Z,1.97
2018-08-25T21:10:08.767Z,1.80
2018-08-25T21:12:38.902Z,2.00
2018-08-25T21:15:07.656Z,1.33
2018-08-25T21:17:36.156Z,1.07
2018-08-25T21:20:04.550Z,1.70
2018-08-25T21:22:32.913Z,1.03
2018-08-25T21:25:01.281Z,1.50
2018-08-25T21:27:29.655Z,1.30
2018-08-25T21:36:58.276Z,6.37
2018-08-25T21:39:26.639Z,3.57
2018-08-25T21:41:55.023Z,2.17
2018-08-25T21:44:23.391Z,1.67
2018-08-25T21:46:51.817Z,4.40
2018-08-25T21:49:20.226Z,3.63
2018-08-25T21:51:48.576Z,2.50
2018-08-25T21:54:17.048Z,1.87
2018-08-25T21:56:45.413Z,1.40
2018-08-25T21:59:13.802Z,1.40
2018-08-25T22:01:42.973Z,2.43
2018-08-25T22:04:12.527Z,1.43
2018-08-25T22:06:40.930Z,1.47
2018-08-25T22:09:11.452Z,1.93
2018-08-25T22:11:40.036Z,1.73
2018-08-25T22:14:08.375Z,1.67
2018-08-25T22:16:36.756Z,1.83
2018-08-25T22:19:05.441Z,1.23
2018-08-25T22:21:33.870Z,3.40
2018-08-25T22:24:02.278Z,0.93
2018-08-25T22:26:30.639Z,1.10
2018-08-25T22:28:59.052Z,2.03
2018-08-25T22:31:27.436Z,1.93
2018-08-25T22:33:55.814Z,3.67
2018-08-25T22:36:24.207Z,1.20
2018-08-25T22:38:52.570Z,1.97
2018-08-25T22:41:21.301Z,1.47
2018-08-25T22:43:49.691Z,1.77
2018-08-25T22:46:18.092Z,1.80
2018-08-25T22:48:46.575Z,1.20
2018-08-25T22:51:15.032Z,1.17
2018-08-25T22:53:43.918Z,1.37
2018-08-25T22:56:12.261Z,1.53
2018-08-25T22:58:40.815Z,1.50
2018-08-25T23:01:09.227Z,2.47
2018-08-25T23:03:37.626Z,1.43
2018-08-25T23:06:06.312Z,1.57
2018-08-25T23:08:34.793Z,1.03
2018-08-25T23:11:03.836Z,1.27
2018-08-25T23:13:32.236Z,1.27
2018-08-25T23:16:00.624Z,3.10
2018-08-25T23:18:29.023Z,1.37
2018-08-25T23:20:57.934Z,1.50
2018-08-25T23:23:26.290Z,2.10
2018-08-25T23:25:54.782Z,1.03
2018-08-25T23:28:23.137Z,1.33
2018-08-25T23:30:52.045Z,2.43
2018-08-25T23:33:21.161Z,1.20
2018-08-25T23:35:49.524Z,1.03
2018-08-25T23:38:17.950Z,1.17
2018-08-25T23:40:46.346Z,2.50
2018-08-25T23:43:14.712Z,1.50
2018-08-25T23:45:43.436Z,3.00
2018-08-25T23:48:11.877Z,3.00
2018-08-25T23:50:40.175Z,3.00
2018-08-25T23:53:08.514Z,1.30
2018-08-25T23:55:36.851Z,2.37
2018-08-25T23:58:05.236Z,2.17
